sensor_id;sensor_type;location;lat;lon;timestamp;P1;durP1;ratioP1;P2;durP2;ratioP2
10471;SDS011;5283;48.876;8.962;2023-07-28T00:00:55;11.77;;;7.63;;
10471;SDS011;5283;48.876;8.962;2023-07-28T00:03:21;7.80;;;7.10;;
10471;SDS011;5283;48.876;8.962;2023-07-28T00:05:49;10.23;;;7.90;;
10471;SDS011;5283;48.876;8.962;2023-07-28T00:08:15;7.67;;;6.93;;
10471;SDS011;5283;48.876;8.962;2023-07-28T00:10:43;7.70;;;6.27;;
10471;SDS011;5283;48.876;8.962;2023-07-28T00:13:10;7.73;;;6.87;;
10471;SDS011;5283;48.876;8.962;2023-07-28T00:15:36;8.37;;;6.70;;
10471;SDS011;5283;48.876;8.962;2023-07-28T00:18:03;8.03;;;7.23;;
10471;SDS011;5283;48.876;8.962;2023-07-28T00:20:30;8.33;;;7.53;;
10471;SDS011;5283;48.876;8.962;2023-07-28T00:22:57;8.73;;;7.60;;
10471;SDS011;5283;48.876;8.962;2023-07-28T00:25:24;7.67;;;6.97;;
10471;SDS011;5283;48.876;8.962;2023-07-28T00:27:51;9.57;;;7.80;;
10471;SDS011;5283;48.876;8.962;2023-07-28T00:30:18;8.13;;;7.00;;
10471;SDS011;5283;48.876;8.962;2023-07-28T00:35:31;7.97;;;7.17;;
10471;SDS011;5283;48.876;8.962;2023-07-28T00:37:58;7.77;;;6.70;;
10471;SDS011;5283;48.876;8.962;2023-07-28T00:40:25;7.80;;;7.07;;
10471;SDS011;5283;48.876;8.962;2023-07-28T00:42:52;8.17;;;7.37;;
10471;SDS011;5283;48.876;8.962;2023-07-28T00:45:18;7.60;;;6.93;;
10471;SDS011;5283;48.876;8.962;2023-07-28T00:47:46;9.37;;;7.00;;
10471;SDS011;5283;48.876;8.962;2023-07-28T00:50:13;7.37;;;6.67;;
10471;SDS011;5283;48.876;8.962;2023-07-28T00:52:40;7.43;;;6.63;;
10471;SDS011;5283;48.876;8.962;2023-07-28T00:55:08;7.73;;;7.00;;
10471;SDS011;5283;48.876;8.962;2023-07-28T00:57:35;8.13;;;7.43;;
10471;SDS011;5283;48.876;8.962;2023-07-28T01:00:02;8.83;;;6.77;;
10471;SDS011;5283;48.876;8.962;2023-07-28T01:02:29;9.53;;;7.17;;
10471;SDS011;5283;48.876;8.962;2023-07-28T01:04:56;8.10;;;6.37;;
10471;SDS011;5283;48.876;8.962;2023-07-28T01:07:27;7.70;;;7.00;;
10471;SDS011;5283;48.876;8.962;2023-07-28T01:10:16;7.50;;;6.80;;
10471;SDS011;5283;48.876;8.962;2023-07-28T01:12:47;7.23;;;6.43;;
10471;SDS011;5283;48.876;8.962;2023-07-28T01:15:14;8.20;;;6.07;;
10471;SDS011;5283;48.876;8.962;2023-07-28T01:17:44;8.03;;;6.47;;
10471;SDS011;5283;48.876;8.962;2023-07-28T01:20:11;8.13;;;6.70;;
10471;SDS011;5283;48.876;8.962;2023-07-28T01:22:46;6.90;;;6.20;;
10471;SDS011;5283;48.876;8.962;2023-07-28T01:28:16;7.20;;;6.47;;
10471;SDS011;5283;48.876;8.962;2023-07-28T01:30:43;7.30;;;6.60;;
10471;SDS011;5283;48.876;8.962;2023-07-28T01:33:11;7.60;;;6.77;;
10471;SDS011;5283;48.876;8.962;2023-07-28T01:35:38;6.83;;;6.23;;
10471;SDS011;5283;48.876;8.962;2023-07-28T01:38:04;7.13;;;6.17;;
10471;SDS011;5283;48.876;8.962;2023-07-28T01:40:31;7.13;;;6.43;;
10471;SDS011;5283;48.876;8.962;2023-07-28T01:42:58;8.27;;;7.00;;
10471;SDS011;5283;48.876;8.962;2023-07-28T01:45:25;8.63;;;7.10;;
10471;SDS011;5283;48.876;8.962;2023-07-28T01:47:52;8.03;;;7.33;;
10471;SDS011;5283;48.876;8.962;2023-07-28T01:50:19;8.63;;;7.10;;
10471;SDS011;5283;48.876;8.962;2023-07-28T01:52:45;7.43;;;6.73;;
10471;SDS011;5283;48.876;8.962;2023-07-28T01:55:13;9.63;;;7.83;;
10471;SDS011;5283;48.876;8.962;2023-07-28T01:57:40;11.77;;;7.47;;
10471;SDS011;5283;48.876;8.962;2023-07-28T02:00:15;8.50;;;7.73;;
10471;SDS011;5283;48.876;8.962;2023-07-28T02:02:43;7.60;;;6.90;;
10471;SDS011;5283;48.876;8.962;2023-07-28T02:05:09;8.33;;;7.53;;
10471;SDS011;5283;48.876;8.962;2023-07-28T02:07:37;7.70;;;6.90;;
10471;SDS011;5283;48.876;8.962;2023-07-28T02:10:04;9.23;;;7.40;;
10471;SDS011;5283;48.876;8.962;2023-07-28T02:12:31;8.33;;;7.07;;
10471;SDS011;5283;48.876;8.962;2023-07-28T02:14:59;9.63;;;7.60;;
10471;SDS011;5283;48.876;8.962;2023-07-28T02:17:25;8.23;;;7.43;;
10471;SDS011;5283;48.876;8.962;2023-07-28T02:19:52;8.83;;;7.40;;
10471;SDS011;5283;48.876;8.962;2023-07-28T02:22:19;8.70;;;7.90;;
10471;SDS011;5283;48.876;8.962;2023-07-28T02:24:46;8.30;;;7.40;;
10471;SDS011;5283;48.876;8.962;2023-07-28T02:27:14;8.70;;;7.30;;
10471;SDS011;5283;48.876;8.962;2023-07-28T02:29:43;9.10;;;7.33;;
10471;SDS011;5283;48.876;8.962;2023-07-28T02:32:10;7.60;;;6.80;;
10471;SDS011;5283;48.876;8.962;2023-07-28T02:34:36;8.50;;;7.10;;
10471;SDS011;5283;48.876;8.962;2023-07-28T02:37:03;9.60;;;7.60;;
10471;SDS011;5283;48.876;8.962;2023-07-28T02:39:30;7.90;;;7.17;;
10471;SDS011;5283;48.876;8.962;2023-07-28T02:41:57;8.23;;;7.00;;
10471;SDS011;5283;48.876;8.962;2023-07-28T02:44:24;8.30;;;7.43;;
10471;SDS011;5283;48.876;8.962;2023-07-28T02:46:51;8.03;;;7.23;;
10471;SDS011;5283;48.876;8.962;2023-07-28T02:49:17;8.30;;;7.40;;
10471;SDS011;5283;48.876;8.962;2023-07-28T02:51:45;8.13;;;7.33;;
10471;SDS011;5283;48.876;8.962;2023-07-28T02:54:12;9.00;;;6.70;;
10471;SDS011;5283;48.876;8.962;2023-07-28T02:56:38;8.00;;;7.20;;
10471;SDS011;5283;48.876;8.962;2023-07-28T02:59:05;7.90;;;7.10;;
10471;SDS011;5283;48.876;8.962;2023-07-28T03:01:32;7.67;;;6.87;;
10471;SDS011;5283;48.876;8.962;2023-07-28T03:04:02;8.03;;;7.23;;
10471;SDS011;5283;48.876;8.962;2023-07-28T03:06:29;7.90;;;7.20;;
10471;SDS011;5283;48.876;8.962;2023-07-28T03:08:58;7.60;;;6.87;;
10471;SDS011;5283;48.876;8.962;2023-07-28T03:11:25;8.23;;;7.03;;
10471;SDS011;5283;48.876;8.962;2023-07-28T03:13:51;8.10;;;6.40;;
10471;SDS011;5283;48.876;8.962;2023-07-28T03:16:18;10.53;;;6.90;;
10471;SDS011;5283;48.876;8.962;2023-07-28T03:18:45;8.37;;;6.30;;
10471;SDS011;5283;48.876;8.962;2023-07-28T03:21:12;7.13;;;6.43;;
10471;SDS011;5283;48.876;8.962;2023-07-28T03:23:38;6.87;;;6.27;;
10471;SDS011;5283;48.876;8.962;2023-07-28T03:26:05;8.23;;;6.20;;
10471;SDS011;5283;48.876;8.962;2023-07-28T03:28:32;7.60;;;6.80;;
10471;SDS011;5283;48.876;8.962;2023-07-28T03:30:59;8.50;;;6.30;;
10471;SDS011;5283;48.876;8.962;2023-07-28T03:33:26;7.37;;;6.57;;
10471;SDS011;5283;48.876;8.962;2023-07-28T03:35:52;7.83;;;7.10;;
10471;SDS011;5283;48.876;8.962;2023-07-28T03:38:19;10.03;;;6.67;;
10471;SDS011;5283;48.876;8.962;2023-07-28T03:40:46;8.90;;;7.37;;
10471;SDS011;5283;48.876;8.962;2023-07-28T03:43:13;7.63;;;6.93;;
10471;SDS011;5283;48.876;8.962;2023-07-28T03:45:40;7.30;;;6.60;;
10471;SDS011;5283;48.876;8.962;2023-07-28T03:48:07;7.63;;;6.53;;
10471;SDS011;5283;48.876;8.962;2023-07-28T03:50:36;7.80;;;6.57;;
10471;SDS011;5283;48.876;8.962;2023-07-28T03:53:04;8.87;;;6.50;;
10471;SDS011;5283;48.876;8.962;2023-07-28T03:55:31;6.77;;;6.17;;
10471;SDS011;5283;48.876;8.962;2023-07-28T03:57:57;7.20;;;6.37;;
10471;SDS011;5283;48.876;8.962;2023-07-28T04:00:24;9.97;;;5.93;;
10471;SDS011;5283;48.876;8.962;2023-07-28T04:02:51;6.60;;;5.80;;
10471;SDS011;5283;48.876;8.962;2023-07-28T04:07:50;7.53;;;6.10;;
10471;SDS011;5283;48.876;8.962;2023-07-28T04:10:17;7.63;;;5.93;;
10471;SDS011;5283;48.876;8.962;2023-07-28T04:12:43;6.87;;;6.27;;
10471;SDS011;5283;48.876;8.962;2023-07-28T04:15:12;7.20;;;6.07;;
10471;SDS011;5283;48.876;8.962;2023-07-28T04:17:39;6.57;;;5.87;;
10471;SDS011;5283;48.876;8.962;2023-07-28T04:20:06;7.10;;;6.17;;
10471;SDS011;5283;48.876;8.962;2023-07-28T04:22:36;8.57;;;6.07;;
10471;SDS011;5283;48.876;8.962;2023-07-28T04:25:02;6.47;;;5.87;;
10471;SDS011;5283;48.876;8.962;2023-07-28T04:27:29;6.80;;;6.17;;
10471;SDS011;5283;48.876;8.962;2023-07-28T04:29:56;6.57;;;5.97;;
10471;SDS011;5283;48.876;8.962;2023-07-28T04:32:24;7.00;;;6.07;;
10471;SDS011;5283;48.876;8.962;2023-07-28T04:34:52;7.63;;;6.93;;
10471;SDS011;5283;48.876;8.962;2023-07-28T04:37:19;7.33;;;6.60;;
10471;SDS011;5283;48.876;8.962;2023-07-28T04:39:46;7.40;;;6.60;;
10471;SDS011;5283;48.876;8.962;2023-07-28T04:42:13;7.03;;;6.30;;
10471;SDS011;5283;48.876;8.962;2023-07-28T04:44:40;7.20;;;6.50;;
10471;SDS011;5283;48.876;8.962;2023-07-28T04:47:07;8.37;;;6.30;;
10471;SDS011;5283;48.876;8.962;2023-07-28T04:49:33;8.87;;;6.63;;
10471;SDS011;5283;48.876;8.962;2023-07-28T04:52:02;12.07;;;7.17;;
10471;SDS011;5283;48.876;8.962;2023-07-28T04:54:39;7.67;;;6.57;;
10471;SDS011;5283;48.876;8.962;2023-07-28T04:57:13;6.97;;;6.20;;
10471;SDS011;5283;48.876;8.962;2023-07-28T04:59:41;8.47;;;6.57;;
10471;SDS011;5283;48.876;8.962;2023-07-28T05:02:09;8.40;;;6.47;;
10471;SDS011;5283;48.876;8.962;2023-07-28T05:04:35;7.53;;;6.67;;
10471;SDS011;5283;48.876;8.962;2023-07-28T05:07:03;8.57;;;6.57;;
10471;SDS011;5283;48.876;8.962;2023-07-28T05:09:30;7.63;;;6.67;;
10471;SDS011;5283;48.876;8.962;2023-07-28T05:11:57;8.07;;;6.77;;
10471;SDS011;5283;48.876;8.962;2023-07-28T05:14:24;9.43;;;6.40;;
10471;SDS011;5283;48.876;8.962;2023-07-28T05:16:51;8.73;;;7.10;;
10471;SDS011;5283;48.876;8.962;2023-07-28T05:19:17;7.50;;;6.80;;
10471;SDS011;5283;48.876;8.962;2023-07-28T05:21:44;8.00;;;7.10;;
10471;SDS011;5283;48.876;8.962;2023-07-28T05:24:11;8.60;;;6.57;;
10471;SDS011;5283;48.876;8.962;2023-07-28T05:26:38;8.13;;;7.17;;
10471;SDS011;5283;48.876;8.962;2023-07-28T05:29:05;8.60;;;7.80;;
10471;SDS011;5283;48.876;8.962;2023-07-28T05:31:32;9.63;;;7.87;;
10471;SDS011;5283;48.876;8.962;2023-07-28T05:33:58;9.03;;;8.13;;
10471;SDS011;5283;48.876;8.962;2023-07-28T05:36:25;9.83;;;7.20;;
10471;SDS011;5283;48.876;8.962;2023-07-28T05:38:52;9.90;;;6.70;;
10471;SDS011;5283;48.876;8.962;2023-07-28T05:41:19;7.47;;;6.73;;
10471;SDS011;5283;48.876;8.962;2023-07-28T05:43:46;7.13;;;6.43;;
10471;SDS011;5283;48.876;8.962;2023-07-28T05:46:15;7.13;;;6.30;;
10471;SDS011;5283;48.876;8.962;2023-07-28T05:48:42;6.97;;;6.37;;
10471;SDS011;5283;48.876;8.962;2023-07-28T05:51:09;7.70;;;6.37;;
10471;SDS011;5283;48.876;8.962;2023-07-28T05:53:36;7.27;;;6.53;;
10471;SDS011;5283;48.876;8.962;2023-07-28T05:56:03;7.03;;;5.73;;
10471;SDS011;5283;48.876;8.962;2023-07-28T05:58:30;7.73;;;6.57;;
10471;SDS011;5283;48.876;8.962;2023-07-28T06:00:56;6.30;;;5.70;;
10471;SDS011;5283;48.876;8.962;2023-07-28T06:03:24;6.40;;;5.80;;
10471;SDS011;5283;48.876;8.962;2023-07-28T06:05:51;7.03;;;6.33;;
10471;SDS011;5283;48.876;8.962;2023-07-28T06:08:18;6.80;;;6.10;;
10471;SDS011;5283;48.876;8.962;2023-07-28T06:10:45;7.97;;;6.27;;
10471;SDS011;5283;48.876;8.962;2023-07-28T06:13:12;7.93;;;6.80;;
10471;SDS011;5283;48.876;8.962;2023-07-28T06:15:39;7.20;;;6.60;;
10471;SDS011;5283;48.876;8.962;2023-07-28T06:18:06;8.37;;;6.53;;
10471;SDS011;5283;48.876;8.962;2023-07-28T06:20:45;8.10;;;7.17;;
10471;SDS011;5283;48.876;8.962;2023-07-28T06:23:12;7.17;;;6.57;;
10471;SDS011;5283;48.876;8.962;2023-07-28T06:25:39;7.73;;;6.90;;
10471;SDS011;5283;48.876;8.962;2023-07-28T06:28:10;7.77;;;6.97;;
10471;SDS011;5283;48.876;8.962;2023-07-28T06:30:38;7.53;;;6.70;;
10471;SDS011;5283;48.876;8.962;2023-07-28T06:33:05;7.23;;;6.53;;
10471;SDS011;5283;48.876;8.962;2023-07-28T06:35:33;6.80;;;6.10;;
10471;SDS011;5283;48.876;8.962;2023-07-28T06:38:00;6.93;;;6.23;;
10471;SDS011;5283;48.876;8.962;2023-07-28T06:40:27;6.70;;;5.87;;
10471;SDS011;5283;48.876;8.962;2023-07-28T06:43:07;7.13;;;6.40;;
10471;SDS011;5283;48.876;8.962;2023-07-28T06:45:34;6.77;;;6.03;;
10471;SDS011;5283;48.876;8.962;2023-07-28T06:48:00;6.60;;;5.97;;
10471;SDS011;5283;48.876;8.962;2023-07-28T06:50:27;6.80;;;6.17;;
10471;SDS011;5283;48.876;8.962;2023-07-28T06:52:54;7.13;;;6.10;;
10471;SDS011;5283;48.876;8.962;2023-07-28T06:55:22;5.97;;;4.87;;
10471;SDS011;5283;48.876;8.962;2023-07-28T06:57:49;5.73;;;5.23;;
10471;SDS011;5283;48.876;8.962;2023-07-28T07:00:16;5.17;;;4.67;;
10471;SDS011;5283;48.876;8.962;2023-07-28T07:02:44;4.33;;;4.00;;
10471;SDS011;5283;48.876;8.962;2023-07-28T07:05:11;4.30;;;4.00;;
10471;SDS011;5283;48.876;8.962;2023-07-28T07:07:39;4.00;;;3.70;;
10471;SDS011;5283;48.876;8.962;2023-07-28T07:10:06;4.00;;;3.70;;
10471;SDS011;5283;48.876;8.962;2023-07-28T07:12:34;4.00;;;3.60;;
10471;SDS011;5283;48.876;8.962;2023-07-28T07:15:02;3.37;;;3.07;;
10471;SDS011;5283;48.876;8.962;2023-07-28T07:17:29;2.70;;;2.50;;
10471;SDS011;5283;48.876;8.962;2023-07-28T07:19:56;2.77;;;2.57;;
10471;SDS011;5283;48.876;8.962;2023-07-28T07:22:23;2.77;;;2.40;;
10471;SDS011;5283;48.876;8.962;2023-07-28T07:24:49;2.37;;;2.27;;
10471;SDS011;5283;48.876;8.962;2023-07-28T07:27:16;2.33;;;2.07;;
10471;SDS011;5283;48.876;8.962;2023-07-28T07:29:43;3.07;;;2.00;;
10471;SDS011;5283;48.876;8.962;2023-07-28T07:32:10;2.23;;;2.13;;
10471;SDS011;5283;48.876;8.962;2023-07-28T07:34:37;2.30;;;2.10;;
10471;SDS011;5283;48.876;8.962;2023-07-28T07:37:04;2.33;;;1.93;;
10471;SDS011;5283;48.876;8.962;2023-07-28T07:39:31;2.00;;;1.80;;
10471;SDS011;5283;48.876;8.962;2023-07-28T07:42:00;2.20;;;2.10;;
10471;SDS011;5283;48.876;8.962;2023-07-28T07:44:27;2.27;;;2.00;;
10471;SDS011;5283;48.876;8.962;2023-07-28T07:46:54;2.53;;;1.77;;
10471;SDS011;5283;48.876;8.962;2023-07-28T07:49:22;1.93;;;1.83;;
10471;SDS011;5283;48.876;8.962;2023-07-28T07:51:49;1.83;;;1.73;;
10471;SDS011;5283;48.876;8.962;2023-07-28T07:54:16;2.17;;;2.07;;
10471;SDS011;5283;48.876;8.962;2023-07-28T07:56:44;1.53;;;1.43;;
10471;SDS011;5283;48.876;8.962;2023-07-28T07:59:13;1.57;;;1.50;;
10471;SDS011;5283;48.876;8.962;2023-07-28T08:01:40;1.90;;;1.80;;
10471;SDS011;5283;48.876;8.962;2023-07-28T08:04:07;1.60;;;1.50;;
10471;SDS011;5283;48.876;8.962;2023-07-28T08:06:35;1.80;;;1.70;;
10471;SDS011;5283;48.876;8.962;2023-07-28T08:09:01;1.60;;;1.50;;
10471;SDS011;5283;48.876;8.962;2023-07-28T08:11:28;2.80;;;1.60;;
10471;SDS011;5283;48.876;8.962;2023-07-28T08:13:55;1.90;;;1.80;;
10471;SDS011;5283;48.876;8.962;2023-07-28T08:16:22;2.23;;;1.73;;
10471;SDS011;5283;48.876;8.962;2023-07-28T08:18:49;1.83;;;1.40;;
10471;SDS011;5283;48.876;8.962;2023-07-28T08:21:15;2.93;;;1.90;;
10471;SDS011;5283;48.876;8.962;2023-07-28T08:23:42;1.80;;;1.70;;
10471;SDS011;5283;48.876;8.962;2023-07-28T08:26:09;1.70;;;1.60;;
10471;SDS011;5283;48.876;8.962;2023-07-28T08:28:36;2.07;;;1.90;;
10471;SDS011;5283;48.876;8.962;2023-07-28T08:31:03;3.73;;;1.80;;
10471;SDS011;5283;48.876;8.962;2023-07-28T08:36:20;2.37;;;1.50;;
10471;SDS011;5283;48.876;8.962;2023-07-28T08:38:47;1.30;;;1.30;;
10471;SDS011;5283;48.876;8.962;2023-07-28T08:41:15;1.63;;;1.53;;
10471;SDS011;5283;48.876;8.962;2023-07-28T08:43:41;1.50;;;1.40;;
10471;SDS011;5283;48.876;8.962;2023-07-28T08:46:10;1.90;;;1.70;;
10471;SDS011;5283;48.876;8.962;2023-07-28T08:48:37;2.43;;;1.77;;
10471;SDS011;5283;48.876;8.962;2023-07-28T08:51:04;1.83;;;1.73;;
10471;SDS011;5283;48.876;8.962;2023-07-28T08:53:31;2.10;;;1.53;;
10471;SDS011;5283;48.876;8.962;2023-07-28T08:55:57;1.60;;;1.50;;
10471;SDS011;5283;48.876;8.962;2023-07-28T08:58:24;1.53;;;1.43;;
10471;SDS011;5283;48.876;8.962;2023-07-28T09:00:52;3.20;;;1.80;;
10471;SDS011;5283;48.876;8.962;2023-07-28T09:03:19;2.10;;;1.90;;
10471;SDS011;5283;48.876;8.962;2023-07-28T09:05:47;2.93;;;1.80;;
10471;SDS011;5283;48.876;8.962;2023-07-28T09:08:14;2.10;;;1.90;;
10471;SDS011;5283;48.876;8.962;2023-07-28T09:13:10;3.83;;;1.80;;
10471;SDS011;5283;48.876;8.962;2023-07-28T09:15:39;2.30;;;2.10;;
10471;SDS011;5283;48.876;8.962;2023-07-28T09:18:26;1.90;;;1.80;;
10471;SDS011;5283;48.876;8.962;2023-07-28T09:20:53;3.27;;;1.83;;
10471;SDS011;5283;48.876;8.962;2023-07-28T09:23:27;2.57;;;2.03;;
10471;SDS011;5283;48.876;8.962;2023-07-28T09:25:59;2.60;;;2.03;;
10471;SDS011;5283;48.876;8.962;2023-07-28T09:28:37;3.17;;;2.00;;
10471;SDS011;5283;48.876;8.962;2023-07-28T09:31:07;2.27;;;2.13;;
10471;SDS011;5283;48.876;8.962;2023-07-28T09:33:34;2.10;;;1.80;;
10471;SDS011;5283;48.876;8.962;2023-07-28T09:38:39;2.20;;;1.63;;
10471;SDS011;5283;48.876;8.962;2023-07-28T09:41:10;1.57;;;1.47;;
10471;SDS011;5283;48.876;8.962;2023-07-28T09:43:38;1.57;;;1.47;;
10471;SDS011;5283;48.876;8.962;2023-07-28T09:46:07;2.50;;;1.73;;
10471;SDS011;5283;48.876;8.962;2023-07-28T09:48:36;4.00;;;1.90;;
10471;SDS011;5283;48.876;8.962;2023-07-28T09:51:17;3.03;;;1.57;;
10471;SDS011;5283;48.876;8.962;2023-07-28T09:53:48;1.77;;;1.67;;
10471;SDS011;5283;48.876;8.962;2023-07-28T09:56:22;2.23;;;1.50;;
10471;SDS011;5283;48.876;8.962;2023-07-28T09:58:54;1.37;;;1.27;;
10471;SDS011;5283;48.876;8.962;2023-07-28T10:01:23;1.63;;;1.20;;
10471;SDS011;5283;48.876;8.962;2023-07-28T10:03:51;2.10;;;1.17;;
10471;SDS011;5283;48.876;8.962;2023-07-28T10:06:18;2.07;;;1.27;;
10471;SDS011;5283;48.876;8.962;2023-07-28T10:08:48;1.30;;;1.20;;
10471;SDS011;5283;48.876;8.962;2023-07-28T10:11:15;1.43;;;1.33;;
10471;SDS011;5283;48.876;8.962;2023-07-28T10:13:44;1.33;;;1.23;;
10471;SDS011;5283;48.876;8.962;2023-07-28T10:16:12;1.27;;;1.20;;
10471;SDS011;5283;48.876;8.962;2023-07-28T10:18:52;1.30;;;1.20;;
10471;SDS011;5283;48.876;8.962;2023-07-28T10:21:21;1.17;;;1.13;;
10471;SDS011;5283;48.876;8.962;2023-07-28T10:23:53;0.90;;;0.90;;
10471;SDS011;5283;48.876;8.962;2023-07-28T10:26:35;1.40;;;1.30;;
10471;SDS011;5283;48.876;8.962;2023-07-28T10:29:16;3.10;;;1.17;;
10471;SDS011;5283;48.876;8.962;2023-07-28T10:31:53;3.90;;;1.40;;
10471;SDS011;5283;48.876;8.962;2023-07-28T10:34:21;2.87;;;1.30;;
10471;SDS011;5283;48.876;8.962;2023-07-28T10:36:58;1.30;;;1.23;;
10471;SDS011;5283;48.876;8.962;2023-07-28T10:39:25;1.80;;;1.20;;
10471;SDS011;5283;48.876;8.962;2023-07-28T10:42:08;1.47;;;1.37;;
10471;SDS011;5283;48.876;8.962;2023-07-28T10:44:36;1.40;;;1.33;;
10471;SDS011;5283;48.876;8.962;2023-07-28T10:47:07;1.83;;;1.40;;
10471;SDS011;5283;48.876;8.962;2023-07-28T10:49:35;2.93;;;1.67;;
10471;SDS011;5283;48.876;8.962;2023-07-28T10:52:02;1.43;;;1.33;;
10471;SDS011;5283;48.876;8.962;2023-07-28T10:54:31;1.40;;;1.30;;
10471;SDS011;5283;48.876;8.962;2023-07-28T10:57:01;1.37;;;1.30;;
10471;SDS011;5283;48.876;8.962;2023-07-28T10:59:29;1.53;;;1.43;;
10471;SDS011;5283;48.876;8.962;2023-07-28T11:01:56;1.20;;;1.20;;
10471;SDS011;5283;48.876;8.962;2023-07-28T11:04:23;1.50;;;1.40;;
10471;SDS011;5283;48.876;8.962;2023-07-28T11:06:50;2.53;;;1.43;;
10471;SDS011;5283;48.876;8.962;2023-07-28T11:09:18;1.53;;;1.50;;
10471;SDS011;5283;48.876;8.962;2023-07-28T11:11:46;3.10;;;2.10;;
10471;SDS011;5283;48.876;8.962;2023-07-28T11:14:14;1.80;;;1.70;;
10471;SDS011;5283;48.876;8.962;2023-07-28T11:16:42;1.93;;;1.83;;
10471;SDS011;5283;48.876;8.962;2023-07-28T11:19:16;2.43;;;2.27;;
10471;SDS011;5283;48.876;8.962;2023-07-28T11:21:47;2.27;;;1.63;;
10471;SDS011;5283;48.876;8.962;2023-07-28T11:24:18;2.37;;;2.00;;
10471;SDS011;5283;48.876;8.962;2023-07-28T11:26:46;2.30;;;2.10;;
10471;SDS011;5283;48.876;8.962;2023-07-28T11:29:12;2.50;;;2.07;;
10471;SDS011;5283;48.876;8.962;2023-07-28T11:31:41;2.97;;;2.13;;
10471;SDS011;5283;48.876;8.962;2023-07-28T11:34:14;1.90;;;1.80;;
10471;SDS011;5283;48.876;8.962;2023-07-28T11:36:43;2.20;;;2.10;;
10471;SDS011;5283;48.876;8.962;2023-07-28T11:39:09;2.00;;;1.90;;
10471;SDS011;5283;48.876;8.962;2023-07-28T11:41:37;2.20;;;2.00;;
10471;SDS011;5283;48.876;8.962;2023-07-28T11:44:06;2.10;;;2.00;;
10471;SDS011;5283;48.876;8.962;2023-07-28T11:49:13;2.00;;;1.90;;
10471;SDS011;5283;48.876;8.962;2023-07-28T11:51:52;2.17;;;2.07;;
10471;SDS011;5283;48.876;8.962;2023-07-28T11:54:25;3.03;;;2.20;;
10471;SDS011;5283;48.876;8.962;2023-07-28T11:56:54;4.17;;;2.17;;
10471;SDS011;5283;48.876;8.962;2023-07-28T11:59:23;3.20;;;2.33;;
10471;SDS011;5283;48.876;8.962;2023-07-28T12:04:27;2.67;;;2.47;;
10471;SDS011;5283;48.876;8.962;2023-07-28T12:07:15;3.90;;;2.60;;
10471;SDS011;5283;48.876;8.962;2023-07-28T12:12:15;2.53;;;2.33;;
10471;SDS011;5283;48.876;8.962;2023-07-28T12:14:45;2.57;;;2.40;;
10471;SDS011;5283;48.876;8.962;2023-07-28T12:17:15;2.43;;;2.30;;
10471;SDS011;5283;48.876;8.962;2023-07-28T12:22:29;3.23;;;2.90;;
10471;SDS011;5283;48.876;8.962;2023-07-28T12:24:57;3.87;;;2.60;;
10471;SDS011;5283;48.876;8.962;2023-07-28T12:27:23;3.50;;;3.20;;
10471;SDS011;5283;48.876;8.962;2023-07-28T12:29:57;3.20;;;2.90;;
10471;SDS011;5283;48.876;8.962;2023-07-28T12:32:27;3.60;;;3.30;;
10471;SDS011;5283;48.876;8.962;2023-07-28T12:35:00;3.60;;;3.30;;
10471;SDS011;5283;48.876;8.962;2023-07-28T12:37:39;3.43;;;3.13;;
10471;SDS011;5283;48.876;8.962;2023-07-28T12:40:09;3.70;;;3.40;;
10471;SDS011;5283;48.876;8.962;2023-07-28T12:42:57;4.00;;;3.23;;
10471;SDS011;5283;48.876;8.962;2023-07-28T12:45:27;3.93;;;3.23;;
10471;SDS011;5283;48.876;8.962;2023-07-28T12:48:14;3.40;;;3.07;;
10471;SDS011;5283;48.876;8.962;2023-07-28T12:50:44;3.80;;;3.10;;
10471;SDS011;5283;48.876;8.962;2023-07-28T12:53:10;3.90;;;3.60;;
10471;SDS011;5283;48.876;8.962;2023-07-28T12:55:40;4.23;;;3.40;;
10471;SDS011;5283;48.876;8.962;2023-07-28T12:58:25;3.47;;;3.17;;
10471;SDS011;5283;48.876;8.962;2023-07-28T13:00:55;4.20;;;3.80;;
10471;SDS011;5283;48.876;8.962;2023-07-28T13:03:27;4.30;;;3.90;;
10471;SDS011;5283;48.876;8.962;2023-07-28T13:06:12;5.20;;;4.17;;
10471;SDS011;5283;48.876;8.962;2023-07-28T13:08:41;4.00;;;3.70;;
10471;SDS011;5283;48.876;8.962;2023-07-28T13:14:58;4.83;;;4.50;;
10471;SDS011;5283;48.876;8.962;2023-07-28T13:17:25;4.20;;;3.90;;
10471;SDS011;5283;48.876;8.962;2023-07-28T13:19:52;4.70;;;4.30;;
10471;SDS011;5283;48.876;8.962;2023-07-28T13:22:19;7.93;;;4.63;;
10471;SDS011;5283;48.876;8.962;2023-07-28T13:24:45;4.63;;;4.17;;
10471;SDS011;5283;48.876;8.962;2023-07-28T13:27:12;5.00;;;4.60;;
10471;SDS011;5283;48.876;8.962;2023-07-28T13:29:39;5.30;;;4.80;;
10471;SDS011;5283;48.876;8.962;2023-07-28T13:32:14;5.07;;;4.57;;
10471;SDS011;5283;48.876;8.962;2023-07-28T13:38:04;5.50;;;5.00;;
10471;SDS011;5283;48.876;8.962;2023-07-28T13:51:35;6.73;;;6.03;;
10471;SDS011;5283;48.876;8.962;2023-07-28T13:57:46;9.23;;;5.60;;
10471;SDS011;5283;48.876;8.962;2023-07-28T14:00:13;7.10;;;5.60;;
10471;SDS011;5283;48.876;8.962;2023-07-28T14:02:40;7.77;;;5.77;;
10471;SDS011;5283;48.876;8.962;2023-07-28T14:05:07;6.33;;;5.73;;
10471;SDS011;5283;48.876;8.962;2023-07-28T14:07:34;7.20;;;6.30;;
10471;SDS011;5283;48.876;8.962;2023-07-28T14:10:01;7.13;;;6.40;;
10471;SDS011;5283;48.876;8.962;2023-07-28T14:12:29;6.87;;;6.07;;
10471;SDS011;5283;48.876;8.962;2023-07-28T14:15:03;6.70;;;5.90;;
10471;SDS011;5283;48.876;8.962;2023-07-28T14:17:30;6.63;;;5.43;;
10471;SDS011;5283;48.876;8.962;2023-07-28T14:19:57;6.80;;;5.00;;
10471;SDS011;5283;48.876;8.962;2023-07-28T14:22:24;5.80;;;5.20;;
10471;SDS011;5283;48.876;8.962;2023-07-28T14:24:50;6.00;;;5.37;;
10471;SDS011;5283;48.876;8.962;2023-07-28T14:27:17;5.90;;;5.30;;
10471;SDS011;5283;48.876;8.962;2023-07-28T14:29:44;7.43;;;5.90;;
10471;SDS011;5283;48.876;8.962;2023-07-28T14:32:11;5.67;;;5.17;;
10471;SDS011;5283;48.876;8.962;2023-07-28T14:34:37;7.80;;;5.20;;
10471;SDS011;5283;48.876;8.962;2023-07-28T14:37:05;6.23;;;5.43;;
10471;SDS011;5283;48.876;8.962;2023-07-28T14:39:32;5.83;;;5.30;;
10471;SDS011;5283;48.876;8.962;2023-07-28T14:41:58;5.47;;;4.97;;
10471;SDS011;5283;48.876;8.962;2023-07-28T14:44:25;5.30;;;4.80;;
10471;SDS011;5283;48.876;8.962;2023-07-28T14:46:52;6.00;;;5.47;;
10471;SDS011;5283;48.876;8.962;2023-07-28T14:49:19;5.53;;;4.90;;
10471;SDS011;5283;48.876;8.962;2023-07-28T14:51:46;5.07;;;4.60;;
10471;SDS011;5283;48.876;8.962;2023-07-28T14:54:13;5.23;;;4.70;;
10471;SDS011;5283;48.876;8.962;2023-07-28T14:56:56;5.57;;;5.00;;
10471;SDS011;5283;48.876;8.962;2023-07-28T14:59:24;6.03;;;5.40;;
10471;SDS011;5283;48.876;8.962;2023-07-28T15:01:50;6.20;;;5.40;;
10471;SDS011;5283;48.876;8.962;2023-07-28T15:04:17;6.43;;;5.53;;
10471;SDS011;5283;48.876;8.962;2023-07-28T15:06:46;5.00;;;4.60;;
10471;SDS011;5283;48.876;8.962;2023-07-28T15:12:13;4.87;;;4.40;;
10471;SDS011;5283;48.876;8.962;2023-07-28T15:17:32;5.00;;;4.53;;
10471;SDS011;5283;48.876;8.962;2023-07-28T15:19:59;9.00;;;4.80;;
10471;SDS011;5283;48.876;8.962;2023-07-28T15:22:25;5.23;;;4.60;;
10471;SDS011;5283;48.876;8.962;2023-07-28T15:27:58;4.67;;;4.20;;
10471;SDS011;5283;48.876;8.962;2023-07-28T15:30:27;4.73;;;4.30;;
10471;SDS011;5283;48.876;8.962;2023-07-28T15:32:56;4.60;;;4.20;;
10471;SDS011;5283;48.876;8.962;2023-07-28T15:35:23;4.63;;;3.40;;
10471;SDS011;5283;48.876;8.962;2023-07-28T15:37:50;3.37;;;3.00;;
10471;SDS011;5283;48.876;8.962;2023-07-28T15:40:17;3.67;;;3.37;;
10471;SDS011;5283;48.876;8.962;2023-07-28T15:42:53;4.87;;;3.33;;
10471;SDS011;5283;48.876;8.962;2023-07-28T15:45:20;4.47;;;3.90;;
10471;SDS011;5283;48.876;8.962;2023-07-28T15:47:47;3.90;;;3.60;;
10471;SDS011;5283;48.876;8.962;2023-07-28T15:53:09;4.13;;;3.73;;
10471;SDS011;5283;48.876;8.962;2023-07-28T15:55:35;5.33;;;3.80;;
10471;SDS011;5283;48.876;8.962;2023-07-28T15:58:11;3.80;;;3.50;;
10471;SDS011;5283;48.876;8.962;2023-07-28T16:00:37;4.00;;;3.70;;
10471;SDS011;5283;48.876;8.962;2023-07-28T16:03:07;3.90;;;3.50;;
10471;SDS011;5283;48.876;8.962;2023-07-28T16:08:52;4.10;;;3.73;;
10471;SDS011;5283;48.876;8.962;2023-07-28T16:11:21;4.47;;;3.97;;